createdAt,value
2023-02-01T00:01:00.276Z,97876.63
2023-02-01T00:03:27.443Z,97861.06
2023-02-01T00:05:58.441Z,97887.38
2023-02-01T00:08:25.064Z,97838.84
2023-02-01T00:10:59.695Z,97872.22
2023-02-01T00:13:26.225Z,97907.09
2023-02-01T00:15:52.796Z,97833.06
2023-02-01T00:18:19.336Z,97863.53
2023-02-01T00:20:48.930Z,97862.72
2023-02-01T00:23:15.478Z,97833.19
2023-02-01T00:25:42.038Z,97903.69
2023-02-01T00:28:08.627Z,97885.50
2023-02-01T00:30:35.854Z,97879.75
2023-02-01T00:33:02.429Z,97858.72
2023-02-01T00:35:28.981Z,97865.53
2023-02-01T00:37:55.485Z,97830.69
2023-02-01T00:40:22.369Z,97837.94
2023-02-01T00:42:49.055Z,97806.38
2023-02-01T00:45:15.585Z,97825.59
2023-02-01T00:47:42.105Z,97813.41
2023-02-01T00:50:09.180Z,97838.50
2023-02-01T00:52:35.739Z,97848.31
2023-02-01T00:55:02.571Z,97825.53
2023-02-01T00:57:29.112Z,97868.53
2023-02-01T00:59:55.640Z,97836.41
2023-02-01T01:02:22.307Z,97831.19
2023-02-01T01:04:48.983Z,97828.44
2023-02-01T01:07:15.582Z,97825.97
2023-02-01T01:09:42.197Z,97862.56
2023-02-01T01:12:08.802Z,97841.66
2023-02-01T01:14:35.340Z,97844.47
2023-02-01T01:17:01.863Z,97567.28
2023-02-01T01:19:28.442Z,97833.28
2023-02-01T01:21:54.999Z,97782.53
2023-02-01T01:24:21.534Z,97793.88
2023-02-01T01:26:48.110Z,97832.28
2023-02-01T01:29:14.714Z,97826.97
2023-02-01T01:31:41.222Z,97860.97
2023-02-01T01:34:07.803Z,97838.44
2023-02-01T01:36:34.438Z,97833.34
2023-02-01T01:39:01.033Z,97828.13
2023-02-01T01:41:34.188Z,97855.03
2023-02-01T01:44:02.400Z,97863.81
2023-02-01T01:46:38.771Z,97858.53
2023-02-01T01:49:39.470Z,97868.03
2023-02-01T01:52:06.120Z,97810.59
2023-02-01T01:54:40.836Z,97865.50
2023-02-01T01:57:09.809Z,97824.88
2023-02-01T01:59:37.241Z,97803.97
2023-02-01T02:02:04.542Z,97794.47
2023-02-01T02:04:32.115Z,97830.03
2023-02-01T02:07:01.892Z,97782.53
2023-02-01T02:09:28.377Z,97823.88
2023-02-01T02:11:54.914Z,97840.63
2023-02-01T02:14:22.359Z,97820.47
2023-02-01T02:17:01.950Z,97824.19
2023-02-01T02:19:50.112Z,97856.25
2023-02-01T02:23:07.878Z,97852.81
2023-02-01T02:26:08.236Z,97851.16
2023-02-01T02:29:13.414Z,97840.94
2023-02-01T02:31:45.989Z,97840.06
2023-02-01T02:34:30.203Z,97794.94
2023-02-01T02:36:59.691Z,97838.41
2023-02-01T02:39:35.994Z,97780.16
2023-02-01T02:42:34.568Z,97837.50
2023-02-01T02:45:40.096Z,97834.97
2023-02-01T02:48:19.764Z,97832.41
2023-02-01T02:51:24.357Z,97815.06
2023-02-01T02:54:29.607Z,97769.91
2023-02-01T02:57:15.370Z,97789.94
2023-02-01T03:00:00.555Z,97814.19
2023-02-01T03:02:46.221Z,97741.41
2023-02-01T03:05:13.211Z,97747.50
2023-02-01T03:07:45.763Z,97815.44
2023-02-01T03:10:18.768Z,97771.09
2023-02-01T03:12:57.251Z,97761.47
2023-02-01T03:15:39.578Z,97769.63
2023-02-01T03:18:12.335Z,97678.22
2023-02-01T03:20:39.116Z,97809.53
2023-02-01T03:23:07.569Z,97757.22
2023-02-01T03:25:34.106Z,97787.09
2023-02-01T03:28:09.766Z,97748.22
2023-02-01T03:30:38.131Z,97723.06
2023-02-01T03:33:12.402Z,97748.47
2023-02-01T03:35:41.217Z,97767.56
2023-02-01T03:38:19.223Z,97750.28
2023-02-01T03:40:48.117Z,97786.59
2023-02-01T03:43:16.049Z,97755.06
2023-02-01T03:45:44.725Z,97744.47
2023-02-01T03:48:11.698Z,97779.25
2023-02-01T03:50:39.245Z,97787.97
2023-02-01T03:53:10.459Z,97746.19
2023-02-01T03:55:37.234Z,97724.50
2023-02-01T03:58:19.514Z,97790.91
2023-02-01T04:00:56.482Z,97791.69
2023-02-01T04:03:23.078Z,97784.91
2023-02-01T04:05:50.465Z,97721.56
2023-02-01T04:08:17.008Z,97732.69
2023-02-01T04:10:43.573Z,97768.13
2023-02-01T04:13:10.095Z,97773.34
2023-02-01T04:15:36.688Z,97667.38
2023-02-01T04:18:03.275Z,97731.09
2023-02-01T04:20:29.904Z,97723.13
2023-02-01T04:22:56.400Z,97750.03
2023-02-01T04:25:22.991Z,97725.56
2023-02-01T04:27:49.578Z,97716.34
2023-02-01T04:30:16.284Z,97762.16
2023-02-01T04:32:42.883Z,97711.00
2023-02-01T04:35:09.857Z,97715.34
2023-02-01T04:37:36.397Z,97666.75
2023-02-01T04:40:04.680Z,97768.00
2023-02-01T04:42:31.338Z,97663.47
2023-02-01T04:44:57.864Z,97688.97
2023-02-01T04:47:24.365Z,97721.97
2023-02-01T04:49:50.898Z,97730.88
2023-02-01T04:52:17.417Z,97645.09
2023-02-01T04:54:43.899Z,97717.19
2023-02-01T04:57:10.497Z,97739.84
2023-02-01T04:59:37.090Z,97696.19
2023-02-01T05:02:03.611Z,97732.78
2023-02-01T05:04:30.245Z,97671.78
2023-02-01T05:06:56.867Z,97748.34
2023-02-01T05:09:23.430Z,97710.69
2023-02-01T05:12:08.559Z,97745.47
2023-02-01T05:14:35.163Z,97739.53
2023-02-01T05:17:01.730Z,97759.28
2023-02-01T05:19:28.295Z,97741.97
2023-02-01T05:21:56.979Z,97740.97
2023-02-01T05:24:23.535Z,97720.31
2023-02-01T05:26:50.166Z,97710.81
2023-02-01T05:29:17.410Z,97680.53
2023-02-01T05:31:45.965Z,97672.59
2023-02-01T05:34:12.594Z,97694.41
2023-02-01T05:36:39.165Z,97683.19
2023-02-01T05:39:05.636Z,97563.72
2023-02-01T05:41:32.290Z,97710.19
2023-02-01T05:43:58.829Z,97745.13
2023-02-01T05:46:25.356Z,97718.13
2023-02-01T05:48:53.043Z,97725.84
2023-02-01T05:51:19.611Z,97734.63
2023-02-01T05:53:46.123Z,97741.50
2023-02-01T05:56:12.685Z,97699.81
2023-02-01T05:58:39.232Z,97714.59
2023-02-01T06:01:05.787Z,97739.91
2023-02-01T06:03:32.423Z,97705.22
2023-02-01T06:05:59.027Z,97722.78
2023-02-01T06:08:26.774Z,97702.84
2023-02-01T06:10:59.407Z,97677.88
2023-02-01T06:13:25.983Z,97687.25
2023-02-01T06:15:52.586Z,97696.88
2023-02-01T06:18:19.523Z,97680.31
2023-02-01T06:20:46.056Z,97688.72
2023-02-01T06:23:12.633Z,97730.50
2023-02-01T06:25:39.263Z,97681.25
2023-02-01T06:28:06.826Z,97714.09
2023-02-01T06:30:33.469Z,97700.09
2023-02-01T06:32:59.982Z,97699.28
2023-02-01T06:35:27.430Z,97735.00
2023-02-01T06:37:53.961Z,97733.41
2023-02-01T06:40:20.579Z,97714.16
2023-02-01T06:42:48.933Z,97708.75
2023-02-01T06:45:15.510Z,97689.66
2023-02-01T06:47:43.295Z,97708.13
2023-02-01T06:50:10.369Z,97696.63
2023-02-01T06:52:36.903Z,97703.84
2023-02-01T06:55:03.545Z,97701.91
2023-02-01T06:57:31.804Z,97694.72
2023-02-01T06:59:59.445Z,97731.56
2023-02-01T07:02:26.076Z,97692.34
2023-02-01T07:04:52.643Z,97710.44
2023-02-01T07:07:20.639Z,97680.91
2023-02-01T07:09:47.145Z,97709.31
2023-02-01T07:12:13.712Z,97698.00
2023-02-01T07:14:40.205Z,97738.19
2023-02-01T07:17:06.706Z,97688.53
2023-02-01T07:19:33.229Z,97723.19
2023-02-01T07:21:59.857Z,97707.69
2023-02-01T07:24:26.497Z,97715.47
2023-02-01T07:26:53.089Z,97723.22
2023-02-01T07:29:20.020Z,97709.38
2023-02-01T07:31:46.549Z,97744.06
2023-02-01T07:34:13.105Z,97720.69
2023-02-01T07:36:39.700Z,97749.22
2023-02-01T07:39:06.339Z,97704.22
2023-02-01T07:41:32.869Z,97728.41
2023-02-01T07:43:59.679Z,97743.19
2023-02-01T07:46:26.222Z,97751.72
2023-02-01T07:48:52.746Z,97749.22
2023-02-01T07:51:19.296Z,97762.28
2023-02-01T07:53:45.955Z,97715.16
2023-02-01T07:56:21.633Z,97703.91
2023-02-01T07:58:51.643Z,97747.38
2023-02-01T08:01:22.557Z,97731.63
2023-02-01T08:03:49.957Z,97738.72
2023-02-01T08:06:16.579Z,97730.81
2023-02-01T08:08:45.990Z,97705.84
2023-02-01T08:11:12.517Z,97728.63
2023-02-01T08:13:39.173Z,97703.34
2023-02-01T08:16:07.178Z,97732.66
2023-02-01T08:18:34.006Z,97734.38
2023-02-01T08:21:39.421Z,97765.53
2023-02-01T08:24:06.982Z,97726.59
2023-02-01T08:26:33.600Z,97690.06
2023-02-01T08:29:01.214Z,97748.91
2023-02-01T08:31:28.608Z,97758.28
2023-02-01T08:33:56.463Z,97788.03
2023-02-01T08:36:23.819Z,97793.13
2023-02-01T08:38:50.388Z,97733.81
2023-02-01T08:41:18.736Z,97775.59
2023-02-01T08:43:45.325Z,97763.63
2023-02-01T08:46:12.160Z,97762.72
2023-02-01T08:48:38.822Z,97767.88
2023-02-01T08:51:06.605Z,97729.44
2023-02-01T08:53:33.222Z,97752.03
2023-02-01T08:55:59.829Z,97777.34
2023-02-01T08:58:26.402Z,97752.09
2023-02-01T09:00:53.115Z,97754.53
2023-02-01T09:03:19.824Z,97802.19
2023-02-01T09:05:49.871Z,97789.94
2023-02-01T09:08:16.769Z,97753.25
2023-02-01T09:10:43.585Z,97791.88
2023-02-01T09:13:10.215Z,97767.63
2023-02-01T09:15:37.633Z,97769.38
2023-02-01T09:18:04.341Z,97801.59
2023-02-01T09:20:31.097Z,97814.53
2023-02-01T09:22:57.625Z,97762.09
2023-02-01T09:25:24.419Z,97795.19
2023-02-01T09:27:51.052Z,97787.22
2023-02-01T09:30:17.761Z,97780.13
2023-02-01T09:32:44.275Z,97762.03
2023-02-01T09:35:10.850Z,97757.59
2023-02-01T09:37:38.590Z,97817.69
2023-02-01T09:40:05.628Z,97803.53
2023-02-01T09:42:50.885Z,97828.69
2023-02-01T09:45:45.882Z,97811.34
2023-02-01T09:48:17.787Z,97810.47
2023-02-01T09:50:52.613Z,97800.91
2023-02-01T09:53:35.198Z,97786.97
2023-02-01T09:56:24.447Z,97818.06
2023-02-01T09:59:00.082Z,97848.59
2023-02-01T10:01:27.522Z,97838.91
2023-02-01T10:04:02.755Z,97808.25
2023-02-01T10:07:16.779Z,97793.41
2023-02-01T10:09:48.806Z,97861.34
2023-02-01T10:12:24.133Z,97866.44
2023-02-01T10:15:00.205Z,97836.59
2023-02-01T10:17:45.077Z,97877.53
2023-02-01T10:20:46.877Z,97871.56
2023-02-01T10:23:37.625Z,97872.44
2023-02-01T10:26:14.089Z,97815.88
2023-02-01T10:28:40.625Z,97869.56
2023-02-01T10:31:07.439Z,97850.44
2023-02-01T10:33:45.871Z,97827.00
2023-02-01T10:36:37.287Z,97814.13
2023-02-01T10:39:05.150Z,97818.56
2023-02-01T10:41:34.124Z,97741.91
2023-02-01T10:44:00.786Z,97792.63
2023-02-01T10:46:27.500Z,97860.56
2023-02-01T10:48:55.484Z,97825.84
2023-02-01T10:51:31.950Z,97802.38
2023-02-01T10:54:01.673Z,97802.56
2023-02-01T10:56:28.791Z,97805.38
2023-02-01T10:59:03.436Z,97776.50
2023-02-01T11:01:34.716Z,97822.78
2023-02-01T11:04:04.954Z,97826.03
2023-02-01T11:06:36.963Z,97823.34
2023-02-01T11:09:09.664Z,97852.09
2023-02-01T11:11:48.533Z,97847.88
2023-02-01T11:14:19.448Z,97821.50
2023-02-01T11:16:50.920Z,97837.84
2023-02-01T11:19:18.179Z,97845.53
2023-02-01T11:21:45.865Z,97835.78
2023-02-01T11:24:25.921Z,97875.94
2023-02-01T11:26:58.167Z,97873.38
2023-02-01T11:29:30.546Z,97837.69
2023-02-01T11:32:00.518Z,97811.75
2023-02-01T11:34:32.413Z,97830.06
2023-02-01T11:37:00.845Z,97806.59
2023-02-01T11:39:36.653Z,97824.28
2023-02-01T11:42:16.946Z,97819.91
2023-02-01T11:44:47.396Z,97785.16
2023-02-01T11:47:32.440Z,97788.22
2023-02-01T11:50:03.346Z,97789.88
2023-02-01T11:53:00.727Z,97817.31
2023-02-01T11:56:02.655Z,97772.16
2023-02-01T11:58:50.645Z,97801.13
2023-02-01T12:01:42.594Z,97759.03
2023-02-01T12:04:21.285Z,97808.78
2023-02-01T12:06:55.824Z,97769.56
2023-02-01T12:09:29.518Z,97816.44
2023-02-01T12:12:10.041Z,97807.06
2023-02-01T12:15:01.426Z,97796.91
2023-02-01T12:17:49.902Z,97788.38
2023-02-01T12:20:44.320Z,97790.06
2023-02-01T12:23:10.790Z,97766.25
2023-02-01T12:26:22.526Z,97778.13
2023-02-01T12:29:08.490Z,97780.75
2023-02-01T12:31:50.748Z,97779.06
2023-02-01T12:34:39.401Z,97780.75
2023-02-01T12:37:09.900Z,97672.88
2023-02-01T12:39:46.593Z,97761.22
2023-02-01T12:42:27.930Z,97756.59
2023-02-01T12:45:12.287Z,97732.97
2023-02-01T12:48:01.867Z,97721.00
2023-02-01T12:50:33.979Z,97769.72
2023-02-01T12:53:42.967Z,97770.59
2023-02-01T12:56:12.439Z,97653.16
2023-02-01T12:58:45.794Z,97741.13
2023-02-01T13:01:35.648Z,97757.78
2023-02-01T13:04:02.124Z,97760.41
2023-02-01T13:06:38.199Z,97744.44
2023-02-01T13:09:06.592Z,97769.78
2023-02-01T13:11:38.653Z,97750.66
2023-02-01T13:14:21.930Z,97733.91
2023-02-01T13:16:53.535Z,97703.47
2023-02-01T13:19:34.739Z,97714.66
2023-02-01T13:22:12.786Z,97753.94
2023-02-01T13:25:11.586Z,97767.97
2023-02-01T13:27:38.181Z,97711.38
2023-02-01T13:30:13.684Z,97777.38
2023-02-01T13:33:51.598Z,97774.81
2023-02-01T13:35:33.735Z,97774.81
2023-02-01T13:38:15.519Z,97708.25
2023-02-01T13:40:45.392Z,97744.72
2023-02-01T13:43:13.320Z,97753.56
2023-02-01T13:45:45.255Z,97696.97
2023-02-01T13:48:20.786Z,97730.25
2023-02-01T13:50:51.201Z,97755.22
2023-02-01T13:53:21.137Z,97761.22
2023-02-01T13:55:58.071Z,97722.06
2023-02-01T13:58:38.779Z,97709.25
2023-02-01T14:01:23.734Z,97752.69
2023-02-01T14:03:57.227Z,97726.56
2023-02-01T14:06:27.529Z,97741.66
2023-02-01T14:09:09.534Z,97743.34
2023-02-01T14:11:51.925Z,97745.03
2023-02-01T14:14:18.405Z,97747.63
2023-02-01T14:17:05.443Z,97706.00
2023-02-01T14:19:36.090Z,97695.75
2023-02-01T14:22:25.155Z,97730.25
2023-02-01T14:24:55.817Z,97645.34
2023-02-01T14:27:24.443Z,97713.75
2023-02-01T14:29:58.887Z,97686.13
2023-02-01T14:32:29.226Z,97697.28
2023-02-01T14:34:58.126Z,97645.03
2023-02-01T14:37:26.011Z,97728.84
2023-02-01T14:39:58.128Z,97686.84
2023-02-01T14:42:33.166Z,97748.47
2023-02-01T14:45:18.422Z,97728.84
2023-02-01T14:47:45.437Z,97695.75
2023-02-01T14:50:18.128Z,97714.47
2023-02-01T14:53:07.312Z,97700.66
2023-02-01T14:55:43.792Z,97665.00
2023-02-01T14:58:34.582Z,97730.97
2023-02-01T15:01:02.581Z,97712.09
2023-02-01T15:03:41.562Z,97731.22
2023-02-01T15:06:25.294Z,97742.53
2023-02-01T15:08:55.685Z,97709.97
2023-02-01T15:11:22.259Z,97709.25
2023-02-01T15:13:54.808Z,97678.13
2023-02-01T15:16:23.168Z,97716.19
2023-02-01T15:18:49.873Z,97724.91
2023-02-01T15:21:32.894Z,97703.31
2023-02-01T15:24:13.663Z,97708.50
2023-02-01T15:26:40.327Z,97698.00
2023-02-01T15:29:09.793Z,97749.38
2023-02-01T15:31:42.040Z,97698.94
2023-02-01T15:34:08.915Z,97707.59
2023-02-01T15:36:36.279Z,97751.97
2023-02-01T15:39:24.160Z,97696.31
2023-02-01T15:41:52.684Z,97693.81
2023-02-01T15:44:28.140Z,97727.63
2023-02-01T15:46:54.747Z,97722.34
2023-02-01T15:49:33.023Z,97685.06
2023-02-01T15:52:00.622Z,97713.81
2023-02-01T15:54:39.264Z,97721.59
2023-02-01T15:57:06.447Z,97748.63
2023-02-01T15:59:43.354Z,97695.63
2023-02-01T16:02:26.629Z,97711.97
2023-02-01T16:04:54.973Z,97733.81
2023-02-01T16:07:30.848Z,97742.66
2023-02-01T16:10:07.946Z,97728.31
2023-02-01T16:12:39.126Z,97715.31
2023-02-01T16:15:06.164Z,97697.16
2023-02-01T16:17:32.801Z,97709.44
2023-02-01T16:19:59.391Z,97681.56
2023-02-01T16:22:25.960Z,97674.63
2023-02-01T16:24:52.464Z,97703.22
2023-02-01T16:27:19.069Z,97695.44
2023-02-01T16:29:45.609Z,97726.81
2023-02-01T16:32:22.065Z,97721.41
2023-02-01T16:34:48.591Z,97697.94
2023-02-01T16:37:21.032Z,97738.94
2023-02-01T16:39:47.574Z,97717.94
2023-02-01T16:42:14.709Z,97753.75
2023-02-01T16:44:41.346Z,97710.09
2023-02-01T16:47:17.861Z,97713.34
2023-02-01T16:49:44.577Z,97737.13
2023-02-01T16:52:19.562Z,97758.91
2023-02-01T16:54:46.124Z,97758.91
2023-02-01T16:57:14.524Z,97702.44
2023-02-01T16:59:41.757Z,97708.59
2023-02-01T17:02:26.458Z,97724.25
2023-02-01T17:04:53.101Z,97718.22
2023-02-01T17:07:19.887Z,97700.13
2023-02-01T17:09:47.290Z,97722.59
2023-02-01T17:12:24.035Z,97715.78
2023-02-01T17:14:51.096Z,97725.75
2023-02-01T17:17:20.552Z,97745.84
2023-02-01T17:19:54.225Z,97718.81
2023-02-01T17:22:21.346Z,97756.16
2023-02-01T17:24:49.121Z,97713.66
2023-02-01T17:27:18.771Z,97726.63
2023-02-01T17:29:47.027Z,97719.63
2023-02-01T17:32:18.031Z,97746.69
2023-02-01T17:34:45.073Z,97712.81
2023-02-01T17:37:30.076Z,97695.56
2023-02-01T17:39:56.744Z,97680.66
2023-02-01T17:42:24.390Z,97697.47
2023-02-01T17:45:02.598Z,97737.38
2023-02-01T17:47:29.198Z,97719.22
2023-02-01T17:49:56.965Z,97746.25
2023-02-01T17:52:24.884Z,97739.41
2023-02-01T17:54:54.075Z,97690.16
2023-02-01T17:57:21.000Z,97701.72
2023-02-01T17:59:47.841Z,97726.13
2023-02-01T18:02:22.382Z,97716.38
2023-02-01T18:04:49.608Z,97673.75
2023-02-01T18:07:16.421Z,97717.31
2023-02-01T18:09:42.930Z,97693.59
2023-02-01T18:12:20.393Z,97770.97
2023-02-01T18:14:47.017Z,97656.19
2023-02-01T18:17:13.595Z,97740.44
2023-02-01T18:19:40.354Z,97772.63
2023-02-01T18:22:07.042Z,97716.44
2023-02-01T18:24:34.849Z,97719.88
2023-02-01T18:27:01.436Z,97731.22
2023-02-01T18:29:28.037Z,97730.44
2023-02-01T18:31:55.153Z,97723.56
2023-02-01T18:34:22.610Z,97724.50
2023-02-01T18:36:49.962Z,97705.34
2023-02-01T18:39:17.126Z,97720.22
2023-02-01T18:41:45.027Z,97717.44
2023-02-01T18:44:15.514Z,97715.19
2023-02-01T18:46:42.361Z,97678.47
2023-02-01T18:49:08.967Z,97696.91
2023-02-01T18:51:35.526Z,97705.03
2023-02-01T18:54:02.238Z,97685.91
2023-02-01T18:56:28.730Z,97655.00
2023-02-01T18:58:55.514Z,97671.38
2023-02-01T19:01:22.254Z,97654.00
2023-02-01T19:03:55.699Z,97704.56
2023-02-01T19:06:27.656Z,97642.13
2023-02-01T19:08:56.142Z,97671.47
2023-02-01T19:11:22.816Z,97660.16
2023-02-01T19:13:50.384Z,97658.38
2023-02-01T19:16:17.088Z,97668.81
2023-02-01T19:18:43.624Z,97646.25
2023-02-01T19:21:11.330Z,97695.88
2023-02-01T19:23:41.443Z,97669.66
2023-02-01T19:26:12.181Z,97689.69
2023-02-01T19:28:38.677Z,97671.31
2023-02-01T19:31:06.433Z,97665.19
2023-02-01T19:33:33.316Z,97680.97
2023-02-01T19:36:00.383Z,97676.63
2023-02-01T19:38:26.958Z,97660.28
2023-02-01T19:40:55.422Z,97646.28
2023-02-01T19:43:22.107Z,97675.00
2023-02-01T19:45:48.629Z,97683.53
2023-02-01T19:48:15.819Z,97701.97
2023-02-01T19:50:42.371Z,97657.03
2023-02-01T19:53:08.975Z,97581.06
2023-02-01T19:55:35.553Z,97684.63
2023-02-01T19:58:02.514Z,97669.03
2023-02-01T20:00:28.254Z,97643.69
2023-02-01T20:02:54.866Z,97690.41
2023-02-01T20:05:23.355Z,97668.03
2023-02-01T20:07:50.430Z,97642.44
2023-02-01T20:10:17.049Z,97665.78
2023-02-01T20:12:47.199Z,97674.44
2023-02-01T20:15:13.815Z,97634.44
2023-02-01T20:17:40.344Z,97641.25
2023-02-01T20:20:07.481Z,97646.59
2023-02-01T20:22:34.188Z,97650.72
2023-02-01T20:25:02.649Z,97637.75
2023-02-01T20:27:30.070Z,97680.31
2023-02-01T20:29:56.554Z,97660.28
2023-02-01T20:32:24.095Z,97680.31
2023-02-01T20:34:53.272Z,97653.22
2023-02-01T20:37:20.640Z,97685.06
2023-02-01T20:39:47.255Z,97690.22
2023-02-01T20:42:13.832Z,97681.78
2023-02-01T20:44:40.380Z,97687.13
2023-02-01T20:47:06.963Z,97686.91
2023-02-01T20:49:34.704Z,97694.84
2023-02-01T20:52:01.309Z,97694.03
2023-02-01T20:54:27.840Z,97674.75
2023-02-01T20:56:54.491Z,97702.03
2023-02-01T20:59:21.021Z,97631.53
2023-02-01T21:01:53.396Z,97676.81
2023-02-01T21:04:22.193Z,97696.63
2023-02-01T21:06:49.100Z,97671.38
2023-02-01T21:09:16.204Z,97667.22
2023-02-01T21:11:44.069Z,97675.94
2023-02-01T21:14:10.706Z,97695.25
2023-02-01T21:16:37.370Z,97675.94
2023-02-01T21:19:04.021Z,97663.72
2023-02-01T21:21:30.538Z,97678.47
2023-02-01T21:23:57.800Z,97683.81
2023-02-01T21:26:25.473Z,97667.16
2023-02-01T21:28:53.142Z,97616.75
2023-02-01T21:31:22.369Z,97708.19
2023-02-01T21:33:49.290Z,97722.59
2023-02-01T21:36:19.466Z,97686.66
2023-02-01T21:38:47.061Z,97695.81
2023-02-01T21:41:39.721Z,97714.84
2023-02-01T21:44:06.364Z,97708.69
2023-02-01T21:46:33.059Z,97687.38
2023-02-01T21:49:05.075Z,97686.66
2023-02-01T21:51:35.082Z,97691.75
2023-02-01T21:54:01.648Z,97633.53
2023-02-01T21:56:28.221Z,97661.88
2023-02-01T21:58:55.311Z,97695.28
2023-02-01T22:01:21.975Z,97703.63
2023-02-01T22:03:49.317Z,97718.53
2023-02-01T22:06:45.933Z,97715.69
2023-02-01T22:09:24.090Z,97722.78
2023-02-01T22:11:51.330Z,97738.88
2023-02-01T22:14:18.135Z,97702.81
2023-02-01T22:16:44.836Z,97695.91
2023-02-01T22:19:12.508Z,97604.50
2023-02-01T22:21:41.980Z,97704.56
2023-02-01T22:24:09.834Z,97715.97
2023-02-01T22:26:36.563Z,97701.25
2023-02-01T22:29:03.197Z,97682.09
2023-02-01T22:31:29.821Z,97697.75
2023-02-01T22:33:56.939Z,97658.88
2023-02-01T22:36:25.120Z,97692.38
2023-02-01T22:38:52.332Z,97668.16
2023-02-01T22:41:19.452Z,97682.16
2023-02-01T22:43:46.760Z,97670.13
2023-02-01T22:46:18.507Z,97685.91
2023-02-01T22:48:45.805Z,97652.03
2023-02-01T22:51:18.272Z,97677.00
2023-02-01T22:53:44.902Z,97654.47
2023-02-01T22:56:12.478Z,97729.13
2023-02-01T22:58:39.083Z,97673.66
2023-02-01T23:01:09.592Z,97684.72
2023-02-01T23:03:36.709Z,97721.19
2023-02-01T23:06:04.229Z,97686.31
2023-02-01T23:08:30.903Z,97712.94
2023-02-01T23:10:59.057Z,97728.13
2023-02-01T23:13:25.600Z,97726.94
2023-02-01T23:15:52.178Z,97744.22
2023-02-01T23:18:18.761Z,97699.28
2023-02-01T23:20:45.312Z,97686.91
2023-02-01T23:23:11.861Z,97706.13
2023-02-01T23:25:38.397Z,97699.06
2023-02-01T23:28:05.055Z,97720.34
2023-02-01T23:30:31.624Z,97731.78
2023-02-01T23:32:58.145Z,97734.53
2023-02-01T23:35:25.001Z,97709.44
2023-02-01T23:37:51.774Z,97705.22
2023-02-01T23:40:18.537Z,97740.09
2023-02-01T23:43:05.312Z,97724.31
2023-02-01T23:45:31.821Z,97707.66
2023-02-01T23:47:58.302Z,97709.44
2023-02-01T23:50:24.917Z,97671.19
2023-02-01T23:52:51.474Z,97727.69
2023-02-01T23:55:18.047Z,97708.66
2023-02-01T23:57:44.602Z,97683.69
